Time;durP1;ratioP1;P1;durP2;ratioP2;P2;SDS_P1;SDS_P2;PMS_P1;PMS_P2;Temp;Humidity;BMP_temperature;BMP_pressure;BME280_temperature;BME280_humidity;BME280_pressure;Samples;Min_cycle;Max_cycle;Signal;HPM_P1;HPM_P2
2021/08/24 00:01:05;;;;;;;5.47;2.70;;;;;;;;;;4986433;28;20409;-96
2021/08/24 00:03:32;;;;;;;4.05;2.38;;;;;;;;;;4989162;28;20432;-96
2021/08/24 00:05:59;;;;;;;4.80;2.50;;;;;;;;;;4989506;28;20416;-95
2021/08/24 00:08:26;;;;;;;3.73;2.70;;;;;;;;;;4986066;28;20413;-95
2021/08/24 00:10:56;;;;;;;3.60;2.40;;;;;;;;;;4986577;28;20447;-96
2021/08/24 00:13:26;;;;;;;3.63;2.37;;;;;;;;;;4986023;28;20420;-96
2021/08/24 00:15:55;;;;;;;3.97;2.50;;;;;;;;;;4985865;28;20416;-95
2021/08/24 00:18:22;;;;;;;3.40;2.42;;;;;;;;;;4985920;28;20413;-95
2021/08/24 00:20:51;;;;;;;3.57;2.37;;;;;;;;;;4988687;28;20471;-95
2021/08/24 00:23:21;;;;;;;3.70;2.38;;;;;;;;;;4989525;28;20424;-96
2021/08/24 00:25:49;;;;;;;4.45;2.72;;;;;;;;;;4992873;28;20406;-95
2021/08/24 00:28:16;;;;;;;3.30;2.50;;;;;;;;;;4985664;28;20928;-95
2021/08/24 00:30:43;;;;;;;5.43;2.58;;;;;;;;;;4987822;28;20423;-95
2021/08/24 00:33:13;;;;;;;3.90;2.50;;;;;;;;;;4989632;28;20409;-96
2021/08/24 00:35:42;;;;;;;3.47;2.60;;;;;;;;;;4989916;28;20936;-96
2021/08/24 00:38:11;;;;;;;4.88;2.75;;;;;;;;;;4989069;28;20432;-96
2021/08/24 00:40:38;;;;;;;3.40;2.20;;;;;;;;;;4988812;28;20482;-96
2021/08/24 00:43:07;;;;;;;5.95;2.92;;;;;;;;;;4985640;28;20429;-95
2021/08/24 00:45:36;;;;;;;3.90;2.38;;;;;;;;;;4987275;28;20924;-96
2021/08/24 00:48:03;;;;;;;5.10;2.60;;;;;;;;;;4989612;28;20784;-96
2021/08/24 00:50:35;;;;;;;4.63;2.50;;;;;;;;;;4989707;28;20457;-96
2021/08/24 00:53:04;;;;;;;4.53;2.28;;;;;;;;;;4985519;28;20425;-96
2021/08/24 00:55:33;;;;;;;3.95;2.47;;;;;;;;;;4987705;28;20432;-96
2021/08/24 00:58:05;;;;;;;4.00;2.72;;;;;;;;;;4989482;28;20500;-96
2021/08/24 01:00:33;;;;;;;3.60;2.47;;;;;;;;;;4988776;28;20417;-95
2021/08/24 01:03:06;;;;;;;3.22;2.40;;;;;;;;;;4988931;28;20424;-96
2021/08/24 01:05:35;;;;;;;3.80;2.30;;;;;;;;;;4986940;28;20452;-95
2021/08/24 01:08:08;;;;;;;3.78;2.35;;;;;;;;;;4991576;28;20927;-95
2021/08/24 01:10:41;;;;;;;4.18;2.45;;;;;;;;;;4987461;28;20405;-95
2021/08/24 01:13:18;;;;;;;3.13;2.30;;;;;;;;;;4990226;28;20411;-95
2021/08/24 01:15:51;;;;;;;3.95;2.35;;;;;;;;;;4984860;28;20417;-96
2021/08/24 01:18:26;;;;;;;4.03;2.38;;;;;;;;;;4984801;28;20911;-95
2021/08/24 01:21:17;;;;;;;3.13;2.00;;;;;;;;;;4985071;28;20704;-96
2021/08/24 01:23:54;;;;;;;3.65;2.25;;;;;;;;;;4984675;28;20424;-96
2021/08/24 01:26:33;;;;;;;3.85;2.30;;;;;;;;;;4985004;28;20408;-95
2021/08/24 01:29:38;;;;;;;2.75;2.30;;;;;;;;;;4984340;28;21414;-96
2021/08/24 01:32:38;;;;;;;4.30;2.40;;;;;;;;;;4986708;28;20421;-95
2021/08/24 01:35:21;;;;;;;3.10;2.20;;;;;;;;;;4975801;28;20435;-96
2021/08/24 01:37:59;;;;;;;3.70;2.30;;;;;;;;;;4989986;28;20424;-95
2021/08/24 01:40:37;;;;;;;3.53;2.10;;;;;;;;;;4984998;28;20424;-96
2021/08/24 01:43:08;;;;;;;2.25;2.00;;;;;;;;;;4983647;28;20420;-95
2021/08/24 01:45:39;;;;;;;3.30;2.20;;;;;;;;;;4984806;28;20417;-95
2021/08/24 01:48:15;;;;;;;3.80;2.20;;;;;;;;;;4986621;28;20878;-95
2021/08/24 01:50:48;;;;;;;4.22;2.28;;;;;;;;;;4988753;28;20724;-96
2021/08/24 01:53:21;;;;;;;3.55;2.50;;;;;;;;;;4989461;28;20702;-96
2021/08/24 01:55:54;;;;;;;3.92;2.60;;;;;;;;;;4985973;28;20428;-96
2021/08/24 01:58:24;;;;;;;2.97;2.40;;;;;;;;;;4988849;28;20448;-96
2021/08/24 02:00:56;;;;;;;3.28;2.35;;;;;;;;;;4986673;28;20413;-95
2021/08/24 02:03:28;;;;;;;3.75;2.28;;;;;;;;;;4995394;28;20823;-95
2021/08/24 02:06:00;;;;;;;4.07;2.38;;;;;;;;;;4992274;28;20418;-95
2021/08/24 02:08:35;;;;;;;4.10;2.40;;;;;;;;;;4996920;28;20407;-95
2021/08/24 02:11:04;;;;;;;3.53;2.50;;;;;;;;;;4989759;28;20412;-96
2021/08/24 02:13:36;;;;;;;3.80;2.30;;;;;;;;;;4992723;28;20416;-95
2021/08/24 02:16:07;;;;;;;2.92;2.22;;;;;;;;;;4990174;28;20519;-96
2021/08/24 02:18:39;;;;;;;4.30;2.10;;;;;;;;;;4992107;28;20412;-96
2021/08/24 02:21:09;;;;;;;2.65;1.90;;;;;;;;;;4993377;28;20414;-95
2021/08/24 02:23:38;;;;;;;5.00;2.10;;;;;;;;;;4995456;28;20488;-94
2021/08/24 02:26:08;;;;;;;2.95;2.00;;;;;;;;;;4994108;28;20440;-94
2021/08/24 02:28:37;;;;;;;2.97;1.97;;;;;;;;;;4996458;28;20430;-95
2021/08/24 02:31:10;;;;;;;3.83;2.13;;;;;;;;;;4992626;28;20781;-96
2021/08/24 02:33:41;;;;;;;2.30;1.90;;;;;;;;;;4995421;28;20414;-95
2021/08/24 02:36:12;;;;;;;3.08;2.28;;;;;;;;;;4993993;28;20413;-95
2021/08/24 02:38:48;;;;;;;3.78;2.00;;;;;;;;;;4995014;28;20419;-95
2021/08/24 02:41:22;;;;;;;3.67;2.10;;;;;;;;;;4994291;28;20420;-96
2021/08/24 02:43:57;;;;;;;4.05;2.20;;;;;;;;;;4993273;28;20433;-95
2021/08/24 02:46:26;;;;;;;4.07;2.20;;;;;;;;;;4995743;28;20407;-96
2021/08/24 02:48:58;;;;;;;3.67;2.10;;;;;;;;;;4992786;28;20905;-96
2021/08/24 02:51:27;;;;;;;2.17;1.98;;;;;;;;;;4996275;28;20429;-96
2021/08/24 02:54:01;;;;;;;3.38;1.85;;;;;;;;;;4994815;28;20407;-96
2021/08/24 02:56:28;;;;;;;2.83;1.90;;;;;;;;;;4996183;28;20403;-96
2021/08/24 02:58:55;;;;;;;2.90;2.40;;;;;;;;;;4995790;28;20410;-96
2021/08/24 03:01:22;;;;;;;3.22;1.92;;;;;;;;;;4993246;28;20412;-96
2021/08/24 03:03:49;;;;;;;3.50;2.10;;;;;;;;;;4992251;28;20423;-96
2021/08/24 03:06:16;;;;;;;3.85;2.22;;;;;;;;;;4994140;28;20413;-96
2021/08/24 03:08:44;;;;;;;4.40;2.22;;;;;;;;;;4994253;28;20414;-96
2021/08/24 03:11:18;;;;;;;3.67;2.03;;;;;;;;;;4993762;28;20747;-96
2021/08/24 03:13:50;;;;;;;3.50;2.20;;;;;;;;;;4994267;28;20789;-96
2021/08/24 03:16:24;;;;;;;4.80;2.17;;;;;;;;;;4996023;28;20415;-96
2021/08/24 03:18:55;;;;;;;3.15;2.10;;;;;;;;;;4996472;28;20799;-96
2021/08/24 03:21:25;;;;;;;3.45;2.15;;;;;;;;;;4995132;28;20414;-96
2021/08/24 03:23:55;;;;;;;4.03;2.33;;;;;;;;;;4996909;28;20437;-96
2021/08/24 03:26:28;;;;;;;4.90;2.40;;;;;;;;;;4994712;28;20415;-96
2021/08/24 03:28:55;;;;;;;4.72;2.35;;;;;;;;;;4992273;28;20404;-96
2021/08/24 03:31:25;;;;;;;4.75;2.40;;;;;;;;;;4995159;28;20641;-96
2021/08/24 03:33:52;;;;;;;3.30;2.17;;;;;;;;;;4991399;28;20418;-96
2021/08/24 03:36:19;;;;;;;4.68;2.33;;;;;;;;;;4992978;28;20407;-96
2021/08/24 03:38:46;;;;;;;3.47;2.40;;;;;;;;;;4997480;28;20417;-96
2021/08/24 03:41:13;;;;;;;3.55;2.10;;;;;;;;;;4997527;28;20415;-96
2021/08/24 03:43:42;;;;;;;2.92;2.40;;;;;;;;;;4995850;28;20428;-96
2021/08/24 03:46:09;;;;;;;4.18;2.50;;;;;;;;;;4996166;28;20416;-96
2021/08/24 03:48:36;;;;;;;4.22;2.38;;;;;;;;;;4998207;28;20421;-96
2021/08/24 03:51:03;;;;;;;3.20;2.00;;;;;;;;;;4999587;28;20415;-96
2021/08/24 03:53:30;;;;;;;3.80;2.10;;;;;;;;;;4996196;28;20419;-96
2021/08/24 03:55:57;;;;;;;4.30;2.03;;;;;;;;;;4991516;28;20901;-95
2021/08/24 03:58:24;;;;;;;5.82;2.25;;;;;;;;;;4998461;28;20414;-96
2021/08/24 04:00:53;;;;;;;4.03;2.05;;;;;;;;;;4996032;28;20411;-96
2021/08/24 04:03:20;;;;;;;2.95;2.20;;;;;;;;;;4992112;28;20416;-96
2021/08/24 04:05:47;;;;;;;4.93;2.10;;;;;;;;;;4987819;28;20422;-96
2021/08/24 04:08:14;;;;;;;4.00;2.10;;;;;;;;;;4996357;28;20702;-96
2021/08/24 04:10:41;;;;;;;4.57;2.22;;;;;;;;;;4990805;28;20455;-96
2021/08/24 04:13:08;;;;;;;3.55;2.20;;;;;;;;;;4986121;28;20409;-96
2021/08/24 04:15:36;;;;;;;6.05;2.30;;;;;;;;;;4986694;28;20413;-96
2021/08/24 04:18:04;;;;;;;3.93;2.43;;;;;;;;;;4986545;28;20449;-96
2021/08/24 04:20:31;;;;;;;4.07;2.83;;;;;;;;;;4996764;28;20440;-96
2021/08/24 04:22:58;;;;;;;5.05;2.75;;;;;;;;;;4997399;28;20423;-96
2021/08/24 04:25:26;;;;;;;6.35;2.40;;;;;;;;;;4986698;28;20409;-96
2021/08/24 04:27:53;;;;;;;5.30;2.75;;;;;;;;;;4999912;28;20925;-96
2021/08/24 04:30:20;;;;;;;5.25;2.85;;;;;;;;;;4998936;28;20507;-96
2021/08/24 04:32:48;;;;;;;6.23;3.17;;;;;;;;;;4990583;28;20413;-96
2021/08/24 04:35:19;;;;;;;5.72;3.10;;;;;;;;;;4999361;28;20432;-96
2021/08/24 04:37:46;;;;;;;5.28;2.97;;;;;;;;;;4998810;28;20421;-96
2021/08/24 04:40:14;;;;;;;4.78;2.80;;;;;;;;;;5000023;28;20420;-96
2021/08/24 04:42:41;;;;;;;3.65;2.78;;;;;;;;;;4990768;28;20419;-96
2021/08/24 04:45:10;;;;;;;3.35;2.78;;;;;;;;;;4985311;28;20907;-96
2021/08/24 04:47:37;;;;;;;5.55;2.88;;;;;;;;;;4985469;28;20420;-96
2021/08/24 04:50:05;;;;;;;3.53;2.80;;;;;;;;;;4984922;28;20413;-96
2021/08/24 04:52:34;;;;;;;6.97;3.15;;;;;;;;;;4985706;28;20686;-96
2021/08/24 04:55:01;;;;;;;5.90;3.15;;;;;;;;;;4999102;28;20933;-96
2021/08/24 04:57:28;;;;;;;4.50;3.00;;;;;;;;;;4988352;28;20447;-96
2021/08/24 04:59:55;;;;;;;5.47;3.08;;;;;;;;;;4999458;28;20414;-96
2021/08/24 05:02:22;;;;;;;3.38;3.00;;;;;;;;;;5000246;28;20415;-96
2021/08/24 05:04:49;;;;;;;4.20;3.10;;;;;;;;;;4997844;28;20813;-96
2021/08/24 05:07:16;;;;;;;4.60;3.20;;;;;;;;;;4998660;28;20423;-96
2021/08/24 05:09:45;;;;;;;5.25;2.83;;;;;;;;;;4990863;28;20417;-96
2021/08/24 05:12:12;;;;;;;5.30;3.25;;;;;;;;;;4991123;28;20888;-96
2021/08/24 05:14:39;;;;;;;6.35;2.83;;;;;;;;;;4986784;28;20417;-96
2021/08/24 05:17:06;;;;;;;6.00;3.28;;;;;;;;;;4999134;28;20418;-96
2021/08/24 05:19:33;;;;;;;5.47;3.17;;;;;;;;;;4993202;28;20415;-96
2021/08/24 05:22:00;;;;;;;6.78;3.05;;;;;;;;;;4999570;28;20411;-96
2021/08/24 05:24:27;;;;;;;4.03;2.55;;;;;;;;;;4988781;28;20416;-96
2021/08/24 05:26:55;;;;;;;4.37;2.87;;;;;;;;;;4984814;28;20423;-96
2021/08/24 05:29:22;;;;;;;4.70;2.65;;;;;;;;;;4996726;28;20419;-96
2021/08/24 05:31:49;;;;;;;3.45;2.45;;;;;;;;;;4995923;28;20420;-96
2021/08/24 05:34:16;;;;;;;4.43;2.40;;;;;;;;;;4986738;28;20413;-96
2021/08/24 05:36:43;;;;;;;2.73;2.00;;;;;;;;;;4992304;28;20420;-96
2021/08/24 05:39:10;;;;;;;3.70;2.03;;;;;;;;;;4994867;28;20454;-96
2021/08/24 05:41:38;;;;;;;4.40;2.20;;;;;;;;;;4995619;28;20420;-96
2021/08/24 05:44:07;;;;;;;3.85;2.40;;;;;;;;;;4984029;28;20424;-96
2021/08/24 05:46:34;;;;;;;4.50;2.03;;;;;;;;;;4988470;28;20417;-96
2021/08/24 05:49:01;;;;;;;3.90;2.05;;;;;;;;;;4984406;28;20413;-96
2021/08/24 05:51:28;;;;;;;3.58;2.10;;;;;;;;;;4988389;28;20749;-96
2021/08/24 05:53:55;;;;;;;3.17;2.30;;;;;;;;;;4990829;28;20780;-96
2021/08/24 05:56:24;;;;;;;3.67;2.30;;;;;;;;;;4984443;28;20431;-96
2021/08/24 05:58:52;;;;;;;6.47;2.47;;;;;;;;;;4989007;28;20416;-96
2021/08/24 06:01:22;;;;;;;3.08;2.08;;;;;;;;;;4992260;28;20897;-96
2021/08/24 06:03:50;;;;;;;3.92;2.22;;;;;;;;;;4994186;28;20425;-96
2021/08/24 06:06:22;;;;;;;3.20;1.97;;;;;;;;;;4998513;28;20455;-96
2021/08/24 06:08:50;;;;;;;4.82;2.13;;;;;;;;;;4998737;28;20401;-96
2021/08/24 06:11:21;;;;;;;4.30;1.85;;;;;;;;;;4998701;28;20409;-96
2021/08/24 06:13:48;;;;;;;2.83;1.95;;;;;;;;;;4985447;28;20404;-96
2021/08/24 06:16:15;;;;;;;2.22;1.70;;;;;;;;;;4984740;28;20905;-96
2021/08/24 06:18:45;;;;;;;3.50;1.52;;;;;;;;;;4988578;28;20761;-96
2021/08/24 06:21:13;;;;;;;3.37;1.43;;;;;;;;;;4986147;28;20416;-96
2021/08/24 06:23:40;;;;;;;2.23;1.50;;;;;;;;;;4999043;28;20421;-96
2021/08/24 06:26:07;;;;;;;1.88;1.52;;;;;;;;;;4988514;28;20423;-96
2021/08/24 06:28:34;;;;;;;2.30;1.42;;;;;;;;;;4984485;28;20444;-96
2021/08/24 06:31:02;;;;;;;3.22;1.50;;;;;;;;;;4995920;28;20996;-96
2021/08/24 06:33:33;;;;;;;2.15;1.30;;;;;;;;;;4988959;28;20402;-96
2021/08/24 06:36:01;;;;;;;4.13;1.55;;;;;;;;;;4981154;28;20955;-96
2021/08/24 06:38:29;;;;;;;1.85;1.25;;;;;;;;;;4983378;28;20419;-96
2021/08/24 06:40:57;;;;;;;3.00;1.27;;;;;;;;;;4993466;28;20423;-96
2021/08/24 06:43:24;;;;;;;4.22;1.33;;;;;;;;;;4999509;28;20423;-96
2021/08/24 06:45:51;;;;;;;3.22;1.48;;;;;;;;;;4996831;28;20408;-96
2021/08/24 06:48:18;;;;;;;1.40;1.30;;;;;;;;;;4984482;28;20912;-95
2021/08/24 06:50:45;;;;;;;2.42;1.20;;;;;;;;;;4984731;28;20417;-96
2021/08/24 06:53:14;;;;;;;3.15;1.50;;;;;;;;;;4989650;28;20417;-95
2021/08/24 06:55:41;;;;;;;3.53;1.27;;;;;;;;;;4996997;28;20415;-96
2021/08/24 06:58:10;;;;;;;1.42;1.20;;;;;;;;;;4985617;28;20416;-96
2021/08/24 07:00:38;;;;;;;2.60;1.10;;;;;;;;;;4986554;28;20773;-95
2021/08/24 07:03:06;;;;;;;2.47;1.40;;;;;;;;;;4999514;28;20903;-96
2021/08/24 07:05:35;;;;;;;3.40;1.20;;;;;;;;;;5000848;28;20958;-96
2021/08/24 07:08:02;;;;;;;1.42;1.33;;;;;;;;;;4990696;28;20415;-96
2021/08/24 07:10:30;;;;;;;2.40;1.70;;;;;;;;;;4981878;28;20464;-96
2021/08/24 07:12:57;;;;;;;2.63;1.40;;;;;;;;;;4990807;28;20427;-96
2021/08/24 07:15:25;;;;;;;1.60;1.15;;;;;;;;;;4995325;28;20405;-96
2021/08/24 07:17:54;;;;;;;2.70;1.27;;;;;;;;;;5004180;28;20768;-96
2021/08/24 07:20:23;;;;;;;2.08;1.30;;;;;;;;;;5000753;28;20458;-96
2021/08/24 07:22:50;;;;;;;2.28;1.30;;;;;;;;;;4991677;28;20424;-96
2021/08/24 07:25:21;;;;;;;1.83;1.10;;;;;;;;;;4989364;28;20527;-96
2021/08/24 07:27:50;;;;;;;3.00;1.52;;;;;;;;;;5002691;28;20412;-96
2021/08/24 07:30:18;;;;;;;3.25;1.30;;;;;;;;;;5000747;28;20413;-96
2021/08/24 07:32:45;;;;;;;3.35;1.80;;;;;;;;;;4995869;28;20512;-96
2021/08/24 07:35:13;;;;;;;3.17;1.90;;;;;;;;;;4987303;28;20747;-96
2021/08/24 07:37:40;;;;;;;2.90;1.50;;;;;;;;;;5001686;28;20654;-96
2021/08/24 07:40:09;;;;;;;1.88;1.58;;;;;;;;;;5002773;28;20506;-96
2021/08/24 07:42:36;;;;;;;1.73;1.25;;;;;;;;;;4996509;28;20430;-96
2021/08/24 07:45:06;;;;;;;1.85;1.23;;;;;;;;;;5002467;28;20430;-96
2021/08/24 07:47:33;;;;;;;2.63;1.40;;;;;;;;;;5003675;28;20429;-96
2021/08/24 07:50:00;;;;;;;2.78;1.48;;;;;;;;;;4990475;28;20968;-96
2021/08/24 07:52:27;;;;;;;1.70;1.40;;;;;;;;;;4986812;28;20409;-96
2021/08/24 07:54:54;;;;;;;2.05;1.20;;;;;;;;;;4987257;28;20443;-96
2021/08/24 07:57:21;;;;;;;1.30;1.20;;;;;;;;;;4992892;28;20761;-96
2021/08/24 07:59:48;;;;;;;3.38;1.52;;;;;;;;;;5002484;28;20420;-96
2021/08/24 08:02:18;;;;;;;2.10;1.25;;;;;;;;;;5002980;28;20655;-96
2021/08/24 08:04:45;;;;;;;2.20;1.20;;;;;;;;;;5002527;28;20782;-96
2021/08/24 08:07:13;;;;;;;2.37;1.27;;;;;;;;;;5002896;28;20839;-96
2021/08/24 08:09:40;;;;;;;2.17;1.20;;;;;;;;;;5002444;28;20422;-96
2021/08/24 08:12:08;;;;;;;2.85;1.20;;;;;;;;;;4996134;28;20419;-96
2021/08/24 08:14:35;;;;;;;1.73;1.27;;;;;;;;;;5003127;28;20410;-96
2021/08/24 08:17:02;;;;;;;2.13;1.23;;;;;;;;;;4999496;28;20774;-96
2021/08/24 08:19:31;;;;;;;1.80;1.23;;;;;;;;;;4983668;28;20409;-96
2021/08/24 08:21:58;;;;;;;3.20;1.23;;;;;;;;;;4982768;28;20447;-96
2021/08/24 08:24:25;;;;;;;3.77;1.40;;;;;;;;;;5002690;28;20755;-96
2021/08/24 08:26:52;;;;;;;1.58;1.30;;;;;;;;;;5002710;28;20405;-96
2021/08/24 08:29:19;;;;;;;3.47;1.20;;;;;;;;;;4986497;28;20421;-96
2021/08/24 08:31:48;;;;;;;3.40;1.10;;;;;;;;;;4986254;28;20412;-96
2021/08/24 08:34:18;;;;;;;2.33;1.20;;;;;;;;;;4998230;28;20853;-96
2021/08/24 08:36:48;;;;;;;1.98;1.27;;;;;;;;;;5000001;28;20921;-96
2021/08/24 08:39:16;;;;;;;1.85;1.20;;;;;;;;;;5000978;28;20820;-96
2021/08/24 08:41:56;;;;;;;2.13;1.00;;;;;;;;;;4997355;28;20430;-96
2021/08/24 08:44:30;;;;;;;2.50;1.00;;;;;;;;;;4988796;28;20513;-96
2021/08/24 08:47:04;;;;;;;2.00;1.10;;;;;;;;;;5002541;28;20498;-96
2021/08/24 08:49:37;;;;;;;2.15;1.10;;;;;;;;;;4987020;28;20411;-96
2021/08/24 08:52:14;;;;;;;2.40;1.10;;;;;;;;;;4982593;28;20411;-96
2021/08/24 08:54:51;;;;;;;2.20;1.05;;;;;;;;;;4985420;28;20409;-96
2021/08/24 08:57:20;;;;;;;4.63;1.30;;;;;;;;;;4994958;28;20428;-96
2021/08/24 08:59:51;;;;;;;3.05;1.20;;;;;;;;;;5002138;28;20887;-96
2021/08/24 09:02:30;;;;;;;2.78;1.10;;;;;;;;;;5002662;28;20411;-96
2021/08/24 09:04:58;;;;;;;3.28;1.25;;;;;;;;;;5002223;28;20450;-96
2021/08/24 09:07:38;;;;;;;4.28;1.10;;;;;;;;;;4999208;28;20409;-96
2021/08/24 09:10:07;;;;;;;1.38;1.10;;;;;;;;;;4994689;28;20415;-96
2021/08/24 09:12:36;;;;;;;1.95;1.10;;;;;;;;;;5004738;28;20422;-96
2021/08/24 09:15:08;;;;;;;3.75;1.02;;;;;;;;;;5004079;28;20772;-96
2021/08/24 09:17:38;;;;;;;3.95;1.20;;;;;;;;;;5004422;28;20419;-96
2021/08/24 09:20:12;;;;;;;2.97;1.10;;;;;;;;;;5003523;28;20422;-96
2021/08/24 09:22:43;;;;;;;1.52;1.27;;;;;;;;;;5004526;28;20418;-96
2021/08/24 09:25:16;;;;;;;1.97;1.20;;;;;;;;;;5004100;28;20555;-96
2021/08/24 09:27:51;;;;;;;2.10;1.10;;;;;;;;;;4989421;28;20405;-96
2021/08/24 09:30:19;;;;;;;2.05;1.05;;;;;;;;;;4987020;28;20413;-96
2021/08/24 09:32:46;;;;;;;3.05;1.20;;;;;;;;;;4999262;28;20425;-96
2021/08/24 09:35:28;;;;;;;1.10;1.00;;;;;;;;;;5003522;28;20878;-96
2021/08/24 09:37:58;;;;;;;3.70;1.10;;;;;;;;;;4988017;28;20416;-96
2021/08/24 09:40:47;;;;;;;1.47;0.90;;;;;;;;;;5004702;28;20417;-96
2021/08/24 09:43:33;;;;;;;1.25;0.90;;;;;;;;;;4997119;28;21212;-96
2021/08/24 09:46:04;;;;;;;3.90;1.00;;;;;;;;;;5004486;28;20742;-96
2021/08/24 09:48:33;;;;;;;2.38;1.02;;;;;;;;;;4983678;28;20409;-96
2021/08/24 09:51:37;;;;;;;1.52;0.88;;;;;;;;;;4991338;28;20419;-96
2021/08/24 09:54:07;;;;;;;1.50;1.00;;;;;;;;;;4934370;29;20510;-96
2021/08/24 09:56:37;;;;;;;1.83;0.95;;;;;;;;;;4944404;28;20989;-96
2021/08/24 09:59:05;;;;;;;0.90;0.90;;;;;;;;;;4974287;28;20418;-96
2021/08/24 10:01:46;;;;;;;1.08;0.85;;;;;;;;;;5004619;28;20445;-96
2021/08/24 10:04:13;;;;;;;1.42;0.80;;;;;;;;;;4985386;28;20415;-96
2021/08/24 10:06:52;;;;;;;3.38;0.80;;;;;;;;;;4998492;28;20407;-96
2021/08/24 10:09:26;;;;;;;1.85;1.00;;;;;;;;;;5003819;28;20417;-96
2021/08/24 10:11:53;;;;;;;1.87;0.97;;;;;;;;;;4997888;28;20429;-96
2021/08/24 10:14:23;;;;;;;2.40;0.90;;;;;;;;;;5003822;28;20431;-96
2021/08/24 10:16:54;;;;;;;1.25;0.90;;;;;;;;;;5004236;28;20997;-96
2021/08/24 10:19:24;;;;;;;1.80;0.90;;;;;;;;;;4987090;28;20425;-96
2021/08/24 10:21:58;;;;;;;2.05;0.80;;;;;;;;;;4999955;28;20408;-96
2021/08/24 10:24:30;;;;;;;1.10;1.00;;;;;;;;;;4986964;28;20420;-96
2021/08/24 10:27:02;;;;;;;1.00;0.90;;;;;;;;;;4985674;28;20410;-96
2021/08/24 10:29:34;;;;;;;1.10;0.97;;;;;;;;;;4983326;28;20459;-96
2021/08/24 10:32:03;;;;;;;1.10;1.00;;;;;;;;;;4982361;28;20420;-96
2021/08/24 10:34:38;;;;;;;2.05;1.10;;;;;;;;;;4990655;28;20468;-96
2021/08/24 10:37:28;;;;;;;1.13;1.00;;;;;;;;;;4983085;28;20431;-96
2021/08/24 10:40:14;;;;;;;1.42;0.70;;;;;;;;;;4989046;28;20417;-96
2021/08/24 10:42:43;;;;;;;1.13;0.93;;;;;;;;;;4988899;28;20416;-96
2021/08/24 10:45:25;;;;;;;2.77;0.90;;;;;;;;;;4985732;28;20808;-96
2021/08/24 10:47:56;;;;;;;2.87;1.10;;;;;;;;;;5006600;28;20762;-96
2021/08/24 10:50:28;;;;;;;1.80;1.00;;;;;;;;;;5008248;28;20472;-96
2021/08/24 10:53:02;;;;;;;2.47;1.10;;;;;;;;;;5009023;28;20426;-96
2021/08/24 10:55:34;;;;;;;1.33;1.20;;;;;;;;;;4997591;28;20407;-96
2021/08/24 10:58:07;;;;;;;1.20;0.90;;;;;;;;;;4986455;28;20432;-96
2021/08/24 11:00:48;;;;;;;2.28;0.98;;;;;;;;;;4987739;28;20423;-96
2021/08/24 11:03:45;;;;;;;1.35;0.98;;;;;;;;;;4990008;28;20690;-96
2021/08/24 11:06:19;;;;;;;1.00;0.90;;;;;;;;;;4987728;28;20424;-96
2021/08/24 11:08:57;;;;;;;2.45;0.80;;;;;;;;;;4989137;28;20412;-96
2021/08/24 11:11:35;;;;;;;0.85;0.75;;;;;;;;;;4990117;28;20614;-96
2021/08/24 11:14:11;;;;;;;1.45;1.00;;;;;;;;;;4986325;28;20420;-96
2021/08/24 11:16:46;;;;;;;2.10;0.93;;;;;;;;;;4995680;28;20410;-96
2021/08/24 11:19:38;;;;;;;2.08;1.00;;;;;;;;;;5008127;28;20489;-96
2021/08/24 11:22:13;;;;;;;1.30;1.00;;;;;;;;;;4986339;28;20420;-96
2021/08/24 11:24:53;;;;;;;1.13;1.02;;;;;;;;;;4990812;28;20413;-96
2021/08/24 11:27:32;;;;;;;1.10;1.00;;;;;;;;;;5008019;28;20418;-96
2021/08/24 11:30:08;;;;;;;1.77;1.10;;;;;;;;;;4985656;28;20462;-96
2021/08/24 11:32:39;;;;;;;1.57;0.80;;;;;;;;;;5002211;28;20418;-96
2021/08/24 11:35:12;;;;;;;1.70;0.90;;;;;;;;;;4997553;28;20464;-96
2021/08/24 11:37:47;;;;;;;1.55;0.85;;;;;;;;;;5003688;28;20427;-96
2021/08/24 11:40:20;;;;;;;2.17;1.13;;;;;;;;;;4988891;28;20427;-96
2021/08/24 11:42:52;;;;;;;1.77;1.00;;;;;;;;;;5002437;28;20418;-96
2021/08/24 11:45:24;;;;;;;1.10;1.00;;;;;;;;;;4994051;28;20427;-96
2021/08/24 11:47:55;;;;;;;1.50;1.00;;;;;;;;;;4991710;28;20781;-96
2021/08/24 11:50:28;;;;;;;1.20;0.90;;;;;;;;;;5008402;28;21105;-96
2021/08/24 11:53:02;;;;;;;1.15;0.90;;;;;;;;;;4989176;28;20901;-96
2021/08/24 11:55:32;;;;;;;0.93;0.80;;;;;;;;;;4989312;28;20444;-96
2021/08/24 11:58:07;;;;;;;1.00;0.80;;;;;;;;;;4999981;28;20917;-96
2021/08/24 12:00:34;;;;;;;0.80;0.80;;;;;;;;;;5000437;28;20768;-96
2021/08/24 12:03:09;;;;;;;2.25;0.85;;;;;;;;;;5000093;28;20497;-96
2021/08/24 12:05:45;;;;;;;1.27;0.70;;;;;;;;;;5008280;28;20433;-96
2021/08/24 12:08:17;;;;;;;1.10;0.60;;;;;;;;;;5007802;28;20407;-96
2021/08/24 12:11:03;;;;;;;0.70;0.70;;;;;;;;;;5007774;28;20427;-96
2021/08/24 12:13:33;;;;;;;1.02;0.70;;;;;;;;;;4985022;28;20504;-96
2021/08/24 12:16:20;;;;;;;0.70;0.60;;;;;;;;;;4984942;28;20878;-96
2021/08/24 12:18:48;;;;;;;0.82;0.70;;;;;;;;;;4988322;28;20425;-96
2021/08/24 12:21:29;;;;;;;0.95;0.77;;;;;;;;;;4998103;28;20411;-96
2021/08/24 12:23:58;;;;;;;0.75;0.60;;;;;;;;;;5007675;28;20477;-96
2021/08/24 12:26:31;;;;;;;0.77;0.70;;;;;;;;;;5007322;28;20899;-96
2021/08/24 12:29:02;;;;;;;0.80;0.70;;;;;;;;;;5007469;28;20407;-96
2021/08/24 12:31:44;;;;;;;0.80;0.80;;;;;;;;;;4985221;28;20425;-96
2021/08/24 12:34:54;;;;;;;1.25;0.77;;;;;;;;;;4985538;28;20417;-96
2021/08/24 12:37:56;;;;;;;0.90;0.70;;;;;;;;;;4987898;28;20987;-96
2021/08/24 12:40:38;;;;;;;0.70;0.70;;;;;;;;;;4988268;28;20416;-96
2021/08/24 12:43:25;;;;;;;0.90;0.68;;;;;;;;;;4987925;28;20420;-96
2021/08/24 12:46:24;;;;;;;1.30;0.80;;;;;;;;;;4987551;28;20456;-96
2021/08/24 12:49:40;;;;;;;2.20;1.00;;;;;;;;;;4987280;28;20413;-96
2021/08/24 12:52:31;;;;;;;0.75;0.73;;;;;;;;;;4992434;28;20756;-96
2021/08/24 12:55:35;;;;;;;1.65;0.98;;;;;;;;;;4992029;28;20845;-96
2021/08/24 12:58:04;;;;;;;1.23;1.00;;;;;;;;;;4987633;28;20468;-96
2021/08/24 13:00:34;;;;;;;1.03;0.80;;;;;;;;;;4984141;28;20413;-96
2021/08/24 13:03:16;;;;;;;1.20;0.80;;;;;;;;;;4984240;28;20416;-96
2021/08/24 13:05:44;;;;;;;1.33;0.85;;;;;;;;;;4987284;28;20413;-96
2021/08/24 13:08:22;;;;;;;1.60;0.80;;;;;;;;;;4991444;28;20423;-96
2021/08/24 13:10:51;;;;;;;0.70;0.70;;;;;;;;;;4986323;28;20408;-96
2021/08/24 13:14:01;;;;;;;0.83;0.73;;;;;;;;;;4986853;28;20421;-96
2021/08/24 13:16:31;;;;;;;1.30;0.77;;;;;;;;;;4987565;28;20409;-96
2021/08/24 13:19:02;;;;;;;1.27;0.80;;;;;;;;;;4986426;28;20412;-96
2021/08/24 13:21:38;;;;;;;1.20;0.80;;;;;;;;;;4987773;28;20428;-96
2021/08/24 13:24:09;;;;;;;1.10;0.68;;;;;;;;;;4983526;28;20897;-96
2021/08/24 13:26:55;;;;;;;1.05;0.80;;;;;;;;;;4987138;28;20431;-96
2021/08/24 13:29:26;;;;;;;1.17;0.68;;;;;;;;;;4988100;28;20412;-96
2021/08/24 13:32:00;;;;;;;1.13;0.70;;;;;;;;;;4987524;28;20423;-96
2021/08/24 13:34:45;;;;;;;1.00;0.80;;;;;;;;;;4990752;28;20418;-96
2021/08/24 13:37:12;;;;;;;0.80;0.70;;;;;;;;;;4986917;28;20409;-96
2021/08/24 13:40:06;;;;;;;1.30;0.90;;;;;;;;;;4986978;28;20420;-96
2021/08/24 13:42:35;;;;;;;1.13;0.77;;;;;;;;;;4980815;28;20513;-95
2021/08/24 13:45:02;;;;;;;2.08;0.77;;;;;;;;;;4987332;28;20416;-96
2021/08/24 13:47:29;;;;;;;1.10;0.80;;;;;;;;;;4983060;28;20451;-96
2021/08/24 13:50:01;;;;;;;0.77;0.70;;;;;;;;;;4986478;28;20417;-96
2021/08/24 13:52:35;;;;;;;1.00;0.77;;;;;;;;;;4986628;28;20447;-95
2021/08/24 13:55:13;;;;;;;0.63;0.63;;;;;;;;;;4986660;28;20412;-96
2021/08/24 13:57:40;;;;;;;1.73;0.90;;;;;;;;;;4987715;28;20405;-96
2021/08/24 14:00:17;;;;;;;0.70;0.70;;;;;;;;;;4986718;28;20420;-96
2021/08/24 14:02:48;;;;;;;1.27;0.90;;;;;;;;;;4986661;28;20421;-96
2021/08/24 14:05:18;;;;;;;1.27;0.80;;;;;;;;;;4986310;28;20413;-96
2021/08/24 14:07:53;;;;;;;1.30;0.68;;;;;;;;;;4986332;28;20420;-96
2021/08/24 14:10:24;;;;;;;1.50;0.73;;;;;;;;;;4986374;28;20743;-96
2021/08/24 14:12:53;;;;;;;1.20;0.70;;;;;;;;;;4987235;28;20417;-96
2021/08/24 14:15:27;;;;;;;1.60;0.60;;;;;;;;;;4987138;28;20424;-96
2021/08/24 14:17:57;;;;;;;0.52;0.52;;;;;;;;;;4987016;28;20415;-95
2021/08/24 14:20:29;;;;;;;0.80;0.70;;;;;;;;;;4986745;28;21003;-96
2021/08/24 14:22:58;;;;;;;1.45;0.70;;;;;;;;;;4986867;28;20436;-96
2021/08/24 14:25:30;;;;;;;1.27;0.70;;;;;;;;;;4987014;28;20740;-96
2021/08/24 14:27:59;;;;;;;0.73;0.70;;;;;;;;;;4986776;28;20409;-96
2021/08/24 14:30:26;;;;;;;0.90;0.60;;;;;;;;;;4987153;28;20436;-96
2021/08/24 14:32:53;;;;;;;1.70;0.90;;;;;;;;;;4986794;28;20415;-96
2021/08/24 14:35:48;;;;;;;1.30;0.90;;;;;;;;;;4990482;28;20927;-95
2021/08/24 14:38:28;;;;;;;1.13;0.70;;;;;;;;;;4985587;28;20419;-95
2021/08/24 14:41:05;;;;;;;0.60;0.60;;;;;;;;;;4990004;28;20405;-96
2021/08/24 14:43:32;;;;;;;2.53;0.80;;;;;;;;;;4985816;28;20428;-96
2021/08/24 14:45:59;;;;;;;0.87;0.70;;;;;;;;;;4986481;28;20413;-96
2021/08/24 14:48:28;;;;;;;1.25;0.90;;;;;;;;;;4986286;28;20408;-96
2021/08/24 14:50:58;;;;;;;1.83;0.70;;;;;;;;;;4985475;28;20412;-96
2021/08/24 14:53:30;;;;;;;0.90;0.60;;;;;;;;;;4987121;28;20419;-95
2021/08/24 14:56:06;;;;;;;1.87;0.80;;;;;;;;;;4986931;28;20423;-96
2021/08/24 14:58:33;;;;;;;1.25;0.70;;;;;;;;;;4983640;28;20423;-96
2021/08/24 15:01:13;;;;;;;1.17;0.90;;;;;;;;;;4986098;28;20421;-96
2021/08/24 15:04:00;;;;;;;1.60;0.70;;;;;;;;;;4986104;28;20420;-96
2021/08/24 15:06:40;;;;;;;0.82;0.80;;;;;;;;;;4986955;28;20427;-96
2021/08/24 15:09:29;;;;;;;1.23;0.70;;;;;;;;;;4987405;28;20742;-96
2021/08/24 15:11:57;;;;;;;1.38;0.73;;;;;;;;;;4988571;28;20418;-96